createdAt,value
2022-11-06T00:01:16.006Z,99.90
2022-11-06T00:03:47.925Z,99.90
2022-11-06T00:06:39.973Z,99.90
2022-11-06T00:09:12.891Z,99.90
2022-11-06T00:11:45.013Z,99.90
2022-11-06T00:14:17.161Z,99.90
2022-11-06T00:16:49.234Z,99.90
2022-11-06T00:19:20.969Z,99.90
2022-11-06T00:21:55.184Z,99.90
2022-11-06T00:24:26.997Z,99.90
2022-11-06T00:26:58.955Z,99.90
2022-11-06T00:29:30.695Z,99.90
2022-11-06T00:32:02.416Z,99.90
2022-11-06T00:34:34.121Z,99.90
2022-11-06T00:37:08.422Z,99.90
2022-11-06T00:39:40.255Z,99.90
2022-11-06T00:42:14.081Z,99.90
2022-11-06T00:44:45.825Z,99.90
2022-11-06T00:47:17.541Z,99.90
2022-11-06T00:49:49.268Z,99.90
2022-11-06T00:52:20.999Z,99.90
2022-11-06T00:54:52.761Z,99.90
2022-11-06T00:57:24.487Z,99.90
2022-11-06T00:59:56.274Z,99.90
2022-11-06T01:02:30.440Z,99.90
2022-11-06T01:05:05.057Z,99.90
2022-11-06T01:07:36.839Z,99.90
2022-11-06T01:10:08.808Z,99.90
2022-11-06T01:12:42.891Z,99.90
2022-11-06T01:15:14.621Z,99.90
2022-11-06T01:17:46.362Z,99.90
2022-11-06T01:20:20.264Z,99.90
2022-11-06T01:22:54.434Z,99.90
2022-11-06T01:25:26.134Z,99.90
2022-11-06T01:27:57.816Z,99.90
2022-11-06T01:30:33.354Z,99.90
2022-11-06T01:33:05.068Z,99.90
2022-11-06T01:35:43.988Z,99.90
2022-11-06T01:38:16.058Z,99.90
2022-11-06T01:40:48.388Z,99.90
2022-11-06T01:43:22.169Z,99.90
2022-11-06T01:45:55.475Z,99.90
2022-11-06T01:48:28.026Z,99.90
2022-11-06T01:50:59.838Z,99.90
2022-11-06T01:53:32.001Z,99.90
2022-11-06T01:56:07.990Z,99.90
2022-11-06T01:58:41.523Z,99.90
2022-11-06T02:01:13.683Z,99.90
2022-11-06T02:03:50.646Z,99.90
2022-11-06T02:06:22.577Z,99.90
2022-11-06T02:08:54.943Z,99.90
2022-11-06T02:11:26.715Z,99.90
2022-11-06T02:14:17.213Z,99.90
2022-11-06T02:16:49.017Z,99.90
2022-11-06T02:19:36.863Z,99.90
2022-11-06T02:22:20.863Z,99.90
2022-11-06T02:24:52.561Z,99.90
2022-11-06T02:27:25.225Z,99.90
2022-11-06T02:30:03.156Z,99.90
2022-11-06T02:32:44.041Z,99.90
2022-11-06T02:35:24.504Z,99.90
2022-11-06T02:38:02.472Z,99.90
2022-11-06T02:40:38.083Z,99.90
2022-11-06T02:43:10.572Z,99.90
2022-11-06T02:45:55.881Z,99.90
2022-11-06T02:48:30.000Z,99.90
2022-11-06T02:51:02.884Z,99.90
2022-11-06T02:53:36.525Z,99.90
2022-11-06T02:56:16.594Z,99.90
2022-11-06T02:58:57.928Z,99.90
2022-11-06T03:01:35.165Z,99.90
2022-11-06T03:04:12.441Z,99.90
2022-11-06T03:06:46.853Z,99.90
2022-11-06T03:09:19.903Z,99.90
2022-11-06T03:11:57.593Z,99.90
2022-11-06T03:14:35.103Z,99.90
2022-11-06T03:17:17.651Z,99.90
2022-11-06T03:19:56.246Z,99.90
2022-11-06T03:22:40.338Z,99.90
2022-11-06T03:25:17.313Z,99.90
2022-11-06T03:28:24.731Z,99.90
2022-11-06T03:31:01.201Z,99.90
2022-11-06T03:33:36.272Z,99.90
2022-11-06T03:36:34.262Z,99.90
2022-11-06T03:39:07.286Z,99.90
2022-11-06T03:41:42.857Z,99.90
2022-11-06T03:44:15.841Z,99.90
2022-11-06T03:46:52.619Z,99.90
2022-11-06T03:49:30.513Z,99.90
2022-11-06T03:52:24.526Z,99.90
2022-11-06T03:54:59.259Z,99.90
2022-11-06T03:57:38.906Z,99.90
2022-11-06T04:00:11.251Z,99.90
2022-11-06T04:02:45.430Z,99.90
2022-11-06T04:05:21.977Z,99.90
2022-11-06T04:08:14.328Z,99.90
2022-11-06T04:11:07.608Z,99.90
2022-11-06T04:13:58.987Z,99.90
2022-11-06T04:16:35.310Z,99.90
2022-11-06T04:19:13.155Z,99.90
2022-11-06T04:21:50.978Z,99.90
2022-11-06T04:24:47.350Z,99.90
2022-11-06T04:27:31.245Z,99.90
2022-11-06T04:30:13.791Z,99.90
2022-11-06T04:32:48.838Z,99.90
2022-11-06T04:35:23.614Z,99.90
2022-11-06T04:38:21.841Z,99.90
2022-11-06T04:40:55.952Z,99.90
2022-11-06T04:43:37.038Z,99.90
2022-11-06T04:46:11.190Z,99.90
2022-11-06T04:48:46.868Z,99.90
2022-11-06T04:51:20.332Z,99.90
2022-11-06T04:53:52.662Z,99.90
2022-11-06T04:56:29.685Z,99.90
2022-11-06T04:59:03.465Z,99.90
2022-11-06T05:01:35.325Z,99.90
2022-11-06T05:04:07.215Z,99.90
2022-11-06T05:06:38.903Z,99.90
2022-11-06T05:09:10.621Z,99.90
2022-11-06T05:11:42.312Z,99.90
2022-11-06T05:14:14.092Z,99.90
2022-11-06T05:16:48.375Z,99.90
2022-11-06T05:19:20.181Z,99.90
2022-11-06T05:22:10.512Z,99.90
2022-11-06T05:24:42.286Z,99.90
2022-11-06T05:27:13.989Z,99.90
2022-11-06T05:29:46.334Z,99.90
2022-11-06T05:32:18.072Z,99.90
2022-11-06T05:34:49.804Z,99.90
2022-11-06T05:37:21.518Z,99.90
2022-11-06T05:39:53.256Z,99.90
2022-11-06T05:42:27.075Z,99.90
2022-11-06T05:44:58.781Z,99.90
2022-11-06T05:47:30.471Z,99.90
2022-11-06T05:50:02.285Z,99.90
2022-11-06T05:52:34.642Z,99.90
2022-11-06T05:55:11.672Z,99.90
2022-11-06T05:57:46.042Z,99.90
2022-11-06T06:00:17.868Z,99.90
2022-11-06T06:02:49.685Z,99.90
2022-11-06T06:05:21.448Z,99.90
2022-11-06T06:07:53.135Z,99.90
2022-11-06T06:10:24.893Z,99.90
2022-11-06T06:12:58.710Z,99.90
2022-11-06T06:15:33.088Z,99.90
2022-11-06T06:18:05.396Z,99.90
2022-11-06T06:20:42.075Z,99.90
2022-11-06T06:23:13.795Z,99.90
2022-11-06T06:25:45.502Z,99.90
2022-11-06T06:28:17.344Z,99.90
2022-11-06T06:30:49.136Z,99.90
2022-11-06T06:33:20.865Z,99.90
2022-11-06T06:35:52.623Z,99.90
2022-11-06T06:38:26.741Z,99.90
2022-11-06T06:41:04.540Z,99.90
2022-11-06T06:43:36.257Z,99.90
2022-11-06T06:46:08.071Z,99.90
2022-11-06T06:48:39.860Z,99.90
2022-11-06T06:51:11.602Z,99.90
2022-11-06T06:53:43.338Z,99.90
2022-11-06T06:56:15.811Z,99.90
2022-11-06T06:58:47.805Z,99.90
2022-11-06T07:01:19.595Z,99.90
2022-11-06T07:03:51.353Z,99.90
2022-11-06T07:06:23.124Z,99.90
2022-11-06T07:08:55.507Z,99.90
2022-11-06T07:11:27.245Z,99.90
2022-11-06T07:13:58.949Z,99.90
2022-11-06T07:16:32.504Z,99.90
2022-11-06T07:19:04.222Z,99.90
2022-11-06T07:21:38.435Z,99.90
2022-11-06T07:24:10.232Z,99.90
2022-11-06T07:26:44.183Z,99.90
2022-11-06T07:29:15.905Z,99.90
2022-11-06T07:31:47.696Z,99.90
2022-11-06T07:34:19.388Z,99.90
2022-11-06T07:36:53.569Z,99.90
2022-11-06T07:39:25.312Z,99.90
2022-11-06T07:41:57.066Z,99.90
2022-11-06T07:44:30.989Z,99.90
2022-11-06T07:47:02.976Z,99.90
2022-11-06T07:49:34.670Z,99.90
2022-11-06T07:52:06.463Z,99.90
2022-11-06T07:54:38.167Z,99.90
2022-11-06T07:57:09.941Z,99.90
2022-11-06T07:59:42.605Z,99.90
2022-11-06T08:02:14.562Z,99.90
2022-11-06T08:04:46.306Z,99.90
2022-11-06T08:07:20.241Z,99.90
2022-11-06T08:09:52.024Z,99.90
2022-11-06T08:12:23.805Z,99.90
2022-11-06T08:14:55.495Z,99.90
2022-11-06T08:17:27.761Z,99.90
2022-11-06T08:19:59.480Z,99.90
2022-11-06T08:22:31.217Z,99.90
2022-11-06T08:25:02.951Z,99.90
2022-11-06T08:27:34.739Z,99.90
2022-11-06T08:30:09.390Z,99.90
2022-11-06T08:32:41.162Z,99.90
2022-11-06T08:35:12.919Z,99.90
2022-11-06T08:37:47.038Z,99.90
2022-11-06T08:40:20.653Z,99.90
2022-11-06T08:42:52.403Z,99.90
2022-11-06T08:45:24.101Z,99.90
2022-11-06T08:47:55.881Z,99.90
2022-11-06T08:50:27.588Z,99.90
2022-11-06T08:53:01.201Z,99.90
2022-11-06T08:55:33.790Z,99.90
2022-11-06T08:58:08.193Z,99.90
2022-11-06T09:00:39.967Z,99.90
2022-11-06T09:03:13.611Z,99.90
2022-11-06T09:05:48.017Z,99.90
2022-11-06T09:08:19.814Z,99.90
2022-11-06T09:10:57.224Z,99.90
2022-11-06T09:13:30.319Z,99.90
2022-11-06T09:16:02.221Z,99.90
2022-11-06T09:18:33.969Z,99.90
2022-11-06T09:21:06.802Z,99.90
2022-11-06T09:23:38.650Z,99.90
2022-11-06T09:26:15.145Z,99.90
2022-11-06T09:28:47.382Z,99.90
2022-11-06T09:31:20.923Z,99.90
2022-11-06T09:33:53.303Z,99.90
2022-11-06T09:36:25.143Z,99.90
2022-11-06T09:38:57.116Z,99.90
2022-11-06T09:42:01.355Z,99.90
2022-11-06T09:44:53.563Z,99.90
2022-11-06T09:47:28.433Z,99.90
2022-11-06T09:50:01.989Z,99.90
2022-11-06T09:52:42.193Z,99.90
2022-11-06T09:55:18.399Z,99.90
2022-11-06T09:58:01.354Z,99.90
2022-11-06T10:00:34.588Z,99.90
2022-11-06T10:03:12.487Z,99.90
2022-11-06T10:05:44.932Z,99.90
2022-11-06T10:08:19.869Z,99.90
2022-11-06T10:11:01.279Z,99.90
2022-11-06T10:13:32.976Z,99.90
2022-11-06T10:16:14.999Z,99.90
2022-11-06T10:18:56.145Z,99.90
2022-11-06T10:21:35.479Z,99.90
2022-11-06T10:24:16.230Z,99.90
2022-11-06T10:26:54.736Z,99.90
2022-11-06T10:29:44.760Z,99.90
2022-11-06T10:32:38.194Z,99.90
2022-11-06T10:35:19.400Z,99.90
2022-11-06T10:37:55.038Z,99.90
2022-11-06T10:40:32.668Z,99.90
2022-11-06T10:43:14.026Z,99.90
2022-11-06T10:45:49.797Z,99.90
2022-11-06T10:48:31.126Z,99.90
2022-11-06T10:51:27.800Z,99.90
2022-11-06T10:54:18.526Z,99.90
2022-11-06T10:56:53.255Z,99.90
2022-11-06T10:59:25.104Z,99.90
2022-11-06T11:01:57.140Z,99.90
2022-11-06T11:04:32.121Z,99.90
2022-11-06T11:07:18.755Z,99.90
2022-11-06T11:09:53.270Z,99.90
2022-11-06T11:12:31.258Z,99.90
2022-11-06T11:15:06.030Z,99.90
2022-11-06T11:17:37.870Z,99.90
2022-11-06T11:20:30.792Z,99.90
2022-11-06T11:23:06.844Z,96.50
2022-11-06T11:25:41.233Z,52.30
2022-11-06T11:28:20.910Z,20.40
2022-11-06T11:30:59.278Z,13.20
2022-11-06T11:33:31.101Z,3.90
2022-11-06T11:36:05.405Z,1.00
2022-11-06T11:38:39.007Z,14.80
2022-11-06T11:41:13.514Z,13.90
2022-11-06T11:43:55.843Z,32.10
2022-11-06T11:46:27.589Z,57.70
2022-11-06T11:48:59.860Z,68.80
2022-11-06T11:51:31.607Z,47.40
2022-11-06T11:54:12.766Z,37.50
2022-11-06T11:57:07.792Z,58.40
2022-11-06T11:59:39.642Z,40.50
2022-11-06T12:02:16.551Z,56.50
2022-11-06T12:04:52.471Z,50.50
2022-11-06T12:07:35.400Z,69.00
2022-11-06T12:10:33.538Z,43.40
2022-11-06T12:13:06.550Z,16.70
2022-11-06T12:15:38.299Z,1.00
2022-11-06T12:18:16.409Z,1.00
2022-11-06T12:21:08.347Z,1.00
2022-11-06T12:23:41.755Z,1.00
2022-11-06T12:26:19.566Z,1.00
2022-11-06T12:28:54.138Z,5.20
2022-11-06T12:31:31.689Z,7.20
2022-11-06T12:34:07.092Z,31.00
2022-11-06T12:36:42.181Z,41.20
2022-11-06T12:39:16.639Z,52.10
2022-11-06T12:41:50.135Z,61.00
2022-11-06T12:44:21.920Z,64.20
2022-11-06T12:47:08.100Z,91.20
2022-11-06T12:49:47.304Z,95.40
2022-11-06T12:52:36.619Z,99.90
2022-11-06T12:55:16.928Z,99.90
2022-11-06T12:58:06.980Z,99.90
2022-11-06T13:00:57.418Z,99.90
2022-11-06T13:03:35.387Z,99.90
2022-11-06T13:06:12.815Z,99.90
2022-11-06T13:09:00.325Z,99.90
2022-11-06T13:11:46.969Z,99.90
2022-11-06T13:14:37.343Z,99.90
2022-11-06T13:17:15.858Z,99.90
2022-11-06T13:20:08.906Z,99.90
2022-11-06T13:22:40.622Z,99.90
2022-11-06T13:25:34.025Z,99.90
2022-11-06T13:28:16.144Z,99.90
2022-11-06T13:30:50.466Z,99.90
2022-11-06T13:33:30.124Z,99.90
2022-11-06T13:36:02.508Z,99.90
2022-11-06T13:38:38.800Z,99.90
2022-11-06T13:41:16.778Z,99.90
2022-11-06T13:44:08.752Z,99.90
2022-11-06T13:46:40.705Z,99.90
2022-11-06T13:49:12.439Z,99.90
2022-11-06T13:51:49.298Z,99.90
2022-11-06T13:54:21.022Z,99.90
2022-11-06T13:57:08.612Z,99.90
2022-11-06T13:59:40.781Z,99.90
2022-11-06T14:02:25.188Z,99.90
2022-11-06T14:05:17.184Z,99.90
2022-11-06T14:07:49.969Z,99.90
2022-11-06T14:10:23.318Z,99.90
2022-11-06T14:12:55.054Z,99.90
2022-11-06T14:15:31.502Z,99.90
2022-11-06T14:18:03.722Z,99.90
2022-11-06T14:20:36.765Z,99.90
2022-11-06T14:23:27.166Z,99.90
2022-11-06T14:26:09.109Z,99.90
2022-11-06T14:28:41.847Z,99.90
2022-11-06T14:31:33.554Z,99.90
2022-11-06T14:34:32.129Z,99.90
2022-11-06T14:37:19.360Z,99.90
2022-11-06T14:39:51.036Z,99.90
2022-11-06T14:42:31.216Z,99.90
2022-11-06T14:45:16.443Z,99.90
2022-11-06T14:47:54.535Z,99.90
2022-11-06T14:50:28.758Z,99.90
2022-11-06T14:53:03.739Z,99.90
2022-11-06T14:55:43.341Z,99.90
2022-11-06T14:58:18.898Z,99.90
2022-11-06T15:00:59.036Z,99.90
2022-11-06T15:03:30.762Z,99.90
2022-11-06T15:06:08.226Z,99.90
2022-11-06T15:08:49.392Z,99.90
2022-11-06T15:11:24.206Z,99.90
2022-11-06T15:13:56.458Z,99.90
2022-11-06T15:16:32.845Z,99.90
2022-11-06T15:19:06.563Z,99.90
2022-11-06T15:22:00.334Z,99.90
2022-11-06T15:24:51.642Z,99.90
2022-11-06T15:27:29.274Z,99.90
2022-11-06T15:30:02.898Z,99.90
2022-11-06T15:32:38.186Z,99.90
2022-11-06T15:35:16.335Z,99.90
2022-11-06T15:37:52.896Z,99.90
2022-11-06T15:40:27.394Z,99.90
2022-11-06T15:43:05.876Z,99.90
2022-11-06T15:45:39.900Z,99.90
2022-11-06T15:48:21.818Z,99.90
2022-11-06T15:50:53.660Z,99.90
2022-11-06T15:53:27.644Z,99.90
2022-11-06T15:56:01.764Z,99.90
2022-11-06T15:58:34.836Z,99.90
2022-11-06T16:01:07.619Z,99.90
2022-11-06T16:03:51.009Z,99.90
2022-11-06T16:06:22.935Z,99.90
2022-11-06T16:08:55.525Z,99.90
2022-11-06T16:11:28.015Z,99.90
2022-11-06T16:14:02.426Z,99.90
2022-11-06T16:16:53.140Z,99.90
2022-11-06T16:19:24.859Z,99.90
2022-11-06T16:22:04.270Z,99.90
2022-11-06T16:24:41.589Z,99.90
2022-11-06T16:27:14.185Z,99.90
2022-11-06T16:29:47.375Z,99.90
2022-11-06T16:32:21.024Z,99.90
2022-11-06T16:34:55.281Z,99.90
2022-11-06T16:37:32.910Z,99.90
2022-11-06T16:40:08.282Z,99.90
2022-11-06T16:42:42.500Z,99.90
2022-11-06T16:45:21.462Z,99.90
2022-11-06T16:48:08.481Z,99.90
2022-11-06T16:50:48.464Z,99.90
2022-11-06T16:53:28.429Z,99.90
2022-11-06T16:56:09.061Z,99.90
2022-11-06T16:58:50.269Z,99.90
2022-11-06T17:01:24.781Z,99.90
2022-11-06T17:03:59.269Z,99.90
2022-11-06T17:06:32.407Z,99.90
2022-11-06T17:09:13.859Z,99.90
2022-11-06T17:11:45.588Z,99.90
2022-11-06T17:14:18.803Z,99.90
2022-11-06T17:16:52.287Z,99.90
2022-11-06T17:19:24.725Z,99.90
2022-11-06T17:21:58.007Z,99.90
2022-11-06T17:24:37.948Z,99.90
2022-11-06T17:27:09.906Z,99.90
2022-11-06T17:29:41.667Z,99.90
2022-11-06T17:32:15.809Z,99.90
2022-11-06T17:34:47.708Z,99.90
2022-11-06T17:37:22.083Z,99.90
2022-11-06T17:39:53.968Z,99.90
2022-11-06T17:42:25.746Z,99.90
2022-11-06T17:44:58.751Z,99.90
2022-11-06T17:47:30.487Z,99.90
2022-11-06T17:50:02.459Z,99.90
2022-11-06T17:52:34.365Z,99.90
2022-11-06T17:55:09.270Z,99.90
2022-11-06T17:57:43.465Z,99.90
2022-11-06T18:00:15.365Z,99.90
2022-11-06T18:03:00.806Z,99.90
2022-11-06T18:05:33.589Z,99.90
2022-11-06T18:08:05.351Z,99.90
2022-11-06T18:10:37.304Z,99.90
2022-11-06T18:13:09.037Z,99.90
2022-11-06T18:15:41.061Z,99.90
2022-11-06T18:18:15.675Z,99.90
2022-11-06T18:20:48.775Z,99.90
2022-11-06T18:23:23.500Z,99.90
2022-11-06T18:25:56.646Z,99.90
2022-11-06T18:28:28.379Z,99.90
2022-11-06T18:31:02.731Z,99.90
2022-11-06T18:33:35.048Z,99.90
2022-11-06T18:36:08.192Z,99.90
2022-11-06T18:38:40.945Z,99.90
2022-11-06T18:41:17.811Z,99.90
2022-11-06T18:43:49.598Z,99.90
2022-11-06T18:46:21.729Z,99.90
2022-11-06T18:48:54.875Z,99.90
2022-11-06T18:51:36.006Z,99.90
2022-11-06T18:54:10.522Z,99.90
2022-11-06T18:56:42.870Z,99.90
2022-11-06T18:59:16.221Z,99.90
2022-11-06T19:01:48.245Z,99.90
2022-11-06T19:04:21.927Z,99.90
2022-11-06T19:06:55.646Z,99.90
2022-11-06T19:09:30.047Z,99.90
2022-11-06T19:12:01.961Z,99.90
2022-11-06T19:14:34.313Z,99.90
2022-11-06T19:17:06.294Z,99.90
2022-11-06T19:19:40.897Z,99.90
2022-11-06T19:22:13.908Z,99.90
2022-11-06T19:24:46.718Z,99.90
2022-11-06T19:27:19.583Z,99.90
2022-11-06T19:29:51.887Z,99.90
2022-11-06T19:32:26.232Z,99.90
2022-11-06T19:34:58.249Z,99.90
2022-11-06T19:37:32.828Z,99.90
2022-11-06T19:40:11.512Z,99.90
2022-11-06T19:42:44.049Z,99.90
2022-11-06T19:45:17.010Z,99.90
2022-11-06T19:47:48.972Z,99.90
2022-11-06T19:50:45.669Z,99.90
2022-11-06T19:53:19.925Z,99.90
2022-11-06T19:55:52.935Z,99.90
2022-11-06T19:58:25.113Z,99.90
2022-11-06T20:00:56.878Z,99.90
2022-11-06T20:03:29.200Z,99.90
2022-11-06T20:06:06.451Z,99.90
2022-11-06T20:08:39.966Z,99.90
2022-11-06T20:11:12.631Z,99.90
2022-11-06T20:13:45.008Z,99.90
2022-11-06T20:16:20.045Z,99.90
2022-11-06T20:18:56.107Z,99.90
2022-11-06T20:21:31.131Z,99.90
2022-11-06T20:24:03.005Z,99.90
2022-11-06T20:26:39.129Z,99.90
2022-11-06T20:29:10.964Z,99.90
2022-11-06T20:31:43.319Z,99.90
2022-11-06T20:34:15.170Z,99.90
2022-11-06T20:36:46.995Z,99.90
2022-11-06T20:39:19.231Z,99.90
2022-11-06T20:41:51.228Z,99.90
2022-11-06T20:44:23.019Z,99.90
2022-11-06T20:46:54.896Z,99.90
2022-11-06T20:49:26.969Z,99.90
2022-11-06T20:52:15.058Z,99.90
2022-11-06T20:54:47.863Z,99.90
2022-11-06T20:57:19.647Z,99.90
2022-11-06T20:59:51.402Z,99.90
2022-11-06T21:02:23.269Z,99.90
2022-11-06T21:04:55.353Z,99.90
2022-11-06T21:07:27.114Z,99.90
2022-11-06T21:09:59.125Z,99.90
2022-11-06T21:12:30.870Z,99.90
2022-11-06T21:15:02.635Z,99.90
2022-11-06T21:17:35.301Z,99.90
2022-11-06T21:20:07.286Z,99.90
2022-11-06T21:22:42.097Z,99.90
2022-11-06T21:25:13.908Z,99.90
2022-11-06T21:27:45.622Z,99.90
2022-11-06T21:30:17.667Z,99.90
2022-11-06T21:32:49.398Z,99.90
2022-11-06T21:35:21.191Z,99.90
2022-11-06T21:37:55.279Z,99.90
2022-11-06T21:40:27.081Z,99.90
2022-11-06T21:42:58.866Z,99.90
2022-11-06T21:45:30.757Z,99.90
2022-11-06T21:48:05.580Z,99.90
2022-11-06T21:50:42.644Z,99.90
2022-11-06T21:53:32.880Z,99.90
2022-11-06T21:56:05.872Z,99.90
2022-11-06T21:58:37.582Z,99.90
2022-11-06T22:01:09.495Z,99.90
2022-11-06T22:03:41.392Z,99.90
2022-11-06T22:06:14.702Z,99.90
2022-11-06T22:08:49.311Z,99.90
2022-11-06T22:11:25.023Z,99.90
2022-11-06T22:13:57.606Z,99.90
2022-11-06T22:16:31.562Z,99.90
2022-11-06T22:19:03.839Z,99.90
2022-11-06T22:21:36.619Z,99.90
2022-11-06T22:24:11.490Z,99.90
2022-11-06T22:26:45.362Z,99.90
2022-11-06T22:29:17.095Z,99.90
2022-11-06T22:31:48.933Z,99.90
2022-11-06T22:34:23.017Z,99.90
2022-11-06T22:36:54.768Z,99.90
2022-11-06T22:39:26.470Z,99.90
2022-11-06T22:41:58.214Z,99.90
2022-11-06T22:44:33.689Z,99.90
2022-11-06T22:47:05.742Z,99.90
2022-11-06T22:49:37.522Z,99.90
2022-11-06T22:52:09.258Z,99.90
2022-11-06T22:54:40.988Z,99.90
2022-11-06T22:57:12.795Z,99.90
2022-11-06T22:59:44.498Z,99.90
2022-11-06T23:02:18.890Z,99.90
2022-11-06T23:04:50.693Z,99.90
2022-11-06T23:07:22.518Z,99.90
2022-11-06T23:09:54.232Z,99.90
2022-11-06T23:12:26.018Z,99.90
2022-11-06T23:14:58.644Z,99.90
2022-11-06T23:17:30.479Z,99.90
2022-11-06T23:20:02.943Z,99.90
2022-11-06T23:22:40.592Z,99.90
2022-11-06T23:25:13.257Z,99.90
2022-11-06T23:27:49.782Z,99.90
2022-11-06T23:30:22.014Z,99.90
2022-11-06T23:32:53.808Z,99.90
2022-11-06T23:35:31.923Z,99.90
2022-11-06T23:38:04.290Z,99.90
2022-11-06T23:40:36.013Z,99.90
2022-11-06T23:43:07.808Z,99.90
2022-11-06T23:45:48.379Z,99.90
2022-11-06T23:48:20.151Z,99.90
2022-11-06T23:50:51.879Z,99.90
2022-11-06T23:53:23.618Z,99.90
2022-11-06T23:55:55.366Z,99.90
2022-11-06T23:58:27.229Z,99.90
